Time;durP1;ratioP1;P1;durP2;ratioP2;P2;SDS_P1;SDS_P2;PMS_P1;PMS_P2;Temp;Humidity;BMP_temperature;BMP_pressure;BME280_temperature;BME280_humidity;BME280_pressure;Samples;Min_cycle;Max_cycle;Signal;HPM_P1;HPM_P2
2023/08/29 00:00:03;;;;;;;7.40;4.30;;;10.90;97.10;;;;;;5027471;28;20037;-69
2023/08/29 00:02:31;;;;;;;7.40;4.17;;;10.90;97.00;;;;;;5009378;28;20100;-69
2023/08/29 00:04:58;;;;;;;6.37;4.30;;;10.90;96.90;;;;;;5023714;28;20296;-70
2023/08/29 00:07:23;;;;;;;7.10;4.57;;;10.80;96.60;;;;;;5015657;28;20331;-68
2023/08/29 00:09:49;;;;;;;7.63;4.20;;;10.90;96.90;;;;;;5015974;28;20280;-69
2023/08/29 00:12:15;;;;;;;6.97;3.90;;;10.90;97.00;;;;;;5022555;28;20099;-69
2023/08/29 00:14:40;;;;;;;5.77;3.73;;;10.80;97.00;;;;;;5038537;28;20151;-69
2023/08/29 00:17:16;;;;;;;6.10;4.43;;;10.80;96.90;;;;;;5025067;28;20318;-69
2023/08/29 00:19:42;;;;;;;8.03;4.40;;;10.80;97.70;;;;;;5007929;28;20037;-68
2023/08/29 00:22:08;;;;;;;7.17;4.67;;;10.80;97.60;;;;;;5029263;28;20372;-68
2023/08/29 00:24:33;;;;;;;4.60;3.67;;;10.80;97.60;;;;;;5035724;28;20284;-68
2023/08/29 00:26:59;;;;;;;5.83;3.03;;;10.70;97.60;;;;;;5027172;28;20050;-68
2023/08/29 00:29:26;;;;;;;10.67;3.07;;;10.70;97.60;;;;;;5025911;28;20092;-68
2023/08/29 00:31:52;;;;;;;645.83;138.97;;;10.70;97.60;;;;;;5024110;28;20061;-68
2023/08/29 00:34:18;;;;;;;295.40;50.47;;;10.60;97.70;;;;;;5023989;28;20289;-68
2023/08/29 00:36:43;;;;;;;4.77;3.43;;;10.60;97.50;;;;;;5020106;28;20362;-67
2023/08/29 00:39:09;;;;;;;5.10;3.53;;;10.60;97.40;;;;;;5031161;28;20108;-68
2023/08/29 00:41:35;;;;;;;669.87;52.23;;;10.60;97.50;;;;;;5025695;28;20075;-68
2023/08/29 00:44:00;;;;;;;558.10;81.93;;;10.60;97.50;;;;;;5020512;28;20037;-68
2023/08/29 00:46:27;;;;;;;7.30;3.77;;;10.50;97.40;;;;;;5026187;28;20037;-67
2023/08/29 00:48:54;;;;;;;7.63;3.40;;;10.50;97.40;;;;;;5028714;28;20053;-68
2023/08/29 00:51:22;;;;;;;5.43;3.40;;;10.50;97.30;;;;;;5005841;28;20128;-68
2023/08/29 00:53:48;;;;;;;5.17;4.07;;;10.40;97.20;;;;;;5023891;28;20337;-68
2023/08/29 00:56:17;;;;;;;6.53;4.17;;;10.50;97.60;;;;;;5009338;28;20076;-68
2023/08/29 00:58:44;;;;;;;6.17;4.40;;;10.50;97.80;;;;;;5010789;28;20040;-68
2023/08/29 01:01:11;;;;;;;6.90;3.77;;;10.50;97.80;;;;;;5026490;28;20351;-68
2023/08/29 01:03:38;;;;;;;8.30;4.00;;;10.50;97.60;;;;;;5018540;28;20283;-68
2023/08/29 01:06:04;;;;;;;7.15;4.55;;;10.50;97.90;;;;;;5026340;28;20291;-68
2023/08/29 01:08:30;;;;;;;5.57;3.90;;;10.50;98.40;;;;;;5024668;28;20050;-68
2023/08/29 01:11:22;;;;;;;5.63;3.73;;;10.50;98.60;;;;;;5023467;28;20088;-68
2023/08/29 01:14:00;;;;;;;5.33;3.77;;;10.50;98.20;;;;;;5026491;28;20492;-69
2023/08/29 01:16:31;;;;;;;6.73;3.93;;;10.40;98.20;;;;;;5024462;28;20290;-69
2023/08/29 01:18:57;;;;;;;5.33;3.80;;;10.40;98.30;;;;;;5028851;28;20291;-68
2023/08/29 01:21:39;;;;;;;7.33;4.10;;;10.40;98.20;;;;;;5030046;28;20275;-69
2023/08/29 01:24:10;;;;;;;5.00;4.20;;;10.40;98.20;;;;;;5031663;28;20271;-69
2023/08/29 01:26:37;;;;;;;8.30;4.93;;;10.40;98.40;;;;;;5027040;28;20279;-68
2023/08/29 01:29:03;;;;;;;5.93;3.70;;;10.40;98.40;;;;;;5028124;28;20686;-69
2023/08/29 01:31:31;;;;;;;4.57;3.37;;;10.40;98.50;;;;;;5031759;28;20048;-68
2023/08/29 01:33:58;;;;;;;8.27;4.53;;;10.30;98.50;;;;;;5031824;28;20291;-68
2023/08/29 01:36:28;;;;;;;6.47;4.07;;;10.30;98.40;;;;;;5029789;28;20342;-68
2023/08/29 01:38:54;;;;;;;5.83;3.83;;;10.30;98.60;;;;;;5012721;28;20323;-68
2023/08/29 01:41:19;;;;;;;7.23;4.17;;;10.30;98.80;;;;;;5029573;28;20280;-68
2023/08/29 01:43:45;;;;;;;6.30;3.70;;;10.30;98.90;;;;;;5035015;28;20084;-68
2023/08/29 01:46:10;;;;;;;6.60;3.70;;;10.30;98.90;;;;;;5029440;28;20037;-68
2023/08/29 01:48:38;;;;;;;5.87;3.20;;;10.30;99.00;;;;;;5028424;28;20064;-69
2023/08/29 01:51:04;;;;;;;4.55;3.55;;;10.20;98.90;;;;;;5027638;28;20083;-69
2023/08/29 01:53:30;;;;;;;4.73;3.30;;;10.30;99.10;;;;;;5025856;28;20196;-69
2023/08/29 01:55:59;;;;;;;5.40;3.20;;;10.20;98.90;;;;;;5030773;28;20052;-69
2023/08/29 01:58:25;;;;;;;3.63;3.00;;;10.20;98.90;;;;;;5033300;28;20447;-69
2023/08/29 02:00:52;;;;;;;5.00;3.20;;;10.20;99.00;;;;;;5032137;28;20787;-69
2023/08/29 02:03:18;;;;;;;5.93;3.43;;;10.20;98.90;;;;;;5025437;28;20291;-69
2023/08/29 02:05:44;;;;;;;4.90;3.60;;;10.20;99.00;;;;;;5030798;28;20291;-69
2023/08/29 02:08:10;;;;;;;5.78;3.47;;;10.20;98.90;;;;;;5033780;28;20097;-69
2023/08/29 02:10:35;;;;;;;6.83;3.97;;;10.10;98.90;;;;;;5030633;28;20168;-69
2023/08/29 02:13:01;;;;;;;6.17;3.77;;;10.10;99.00;;;;;;5032935;28;20481;-69
2023/08/29 02:15:27;;;;;;;6.20;3.30;;;10.10;99.00;;;;;;5030644;28;20041;-69
2023/08/29 02:17:53;;;;;;;4.20;2.67;;;10.10;99.00;;;;;;5026451;28;20064;-69
2023/08/29 02:20:19;;;;;;;5.55;3.50;;;10.10;99.00;;;;;;5012868;28;20048;-69
2023/08/29 02:22:44;;;;;;;6.63;3.50;;;10.10;99.10;;;;;;5031526;28;20037;-69
2023/08/29 02:25:10;;;;;;;4.10;2.97;;;10.10;99.10;;;;;;5033917;28;20504;-69
2023/08/29 02:27:36;;;;;;;6.07;3.10;;;10.10;99.10;;;;;;5033619;28;20044;-69
2023/08/29 02:30:04;;;;;;;6.23;3.67;;;10.10;99.10;;;;;;5031166;28;20037;-68
2023/08/29 02:32:31;;;;;;;4.65;3.00;;;10.10;99.00;;;;;;5027886;28;20037;-68
2023/08/29 02:34:57;;;;;;;4.40;2.90;;;10.10;99.10;;;;;;5028661;28;20178;-69
2023/08/29 02:37:24;;;;;;;5.97;3.17;;;10.10;99.10;;;;;;5025938;28;20402;-69
2023/08/29 02:39:49;;;;;;;4.07;2.75;;;10.10;99.00;;;;;;5030965;28;20048;-70
2023/08/29 02:42:15;;;;;;;4.07;3.10;;;10.10;99.00;;;;;;5023306;28;20504;-69
2023/08/29 02:44:41;;;;;;;4.60;2.90;;;10.00;98.90;;;;;;5024306;28;20052;-69
2023/08/29 02:47:07;;;;;;;5.00;3.37;;;10.00;98.80;;;;;;5022574;28;20076;-69
2023/08/29 02:49:33;;;;;;;4.23;3.20;;;9.90;98.80;;;;;;5013343;28;20049;-69
2023/08/29 02:51:59;;;;;;;5.67;2.80;;;9.90;98.80;;;;;;5024001;28;20118;-69
2023/08/29 02:54:25;;;;;;;5.03;2.90;;;9.90;98.70;;;;;;5028861;28;20311;-69
2023/08/29 02:56:51;;;;;;;3.92;2.67;;;9.80;98.80;;;;;;5021509;28;20043;-69
2023/08/29 02:59:17;;;;;;;6.10;2.70;;;9.80;98.80;;;;;;5029589;28;20044;-69
2023/08/29 03:01:42;;;;;;;5.20;3.00;;;9.80;98.90;;;;;;5030494;28;20029;-69
2023/08/29 03:04:08;;;;;;;4.37;2.60;;;9.80;99.00;;;;;;5031778;28;20088;-69
2023/08/29 03:06:34;;;;;;;4.60;3.07;;;9.80;99.00;;;;;;5030292;28;20044;-69
2023/08/29 03:09:00;;;;;;;4.90;3.00;;;9.80;99.10;;;;;;5027231;28;20379;-69
2023/08/29 03:11:25;;;;;;;5.50;3.00;;;9.80;99.10;;;;;;5011180;28;20406;-69
2023/08/29 03:13:51;;;;;;;5.60;3.10;;;9.80;99.30;;;;;;5030398;28;20436;-69
2023/08/29 03:16:17;;;;;;;5.07;2.83;;;9.80;99.20;;;;;;5025092;28;20045;-69
2023/08/29 03:18:43;;;;;;;4.43;3.07;;;9.80;99.20;;;;;;5030223;28;20025;-69
2023/08/29 03:21:09;;;;;;;4.03;2.17;;;9.80;99.00;;;;;;5021093;28;20037;-69
2023/08/29 03:23:35;;;;;;;3.60;2.60;;;9.80;99.10;;;;;;5029301;28;20037;-69
2023/08/29 03:26:06;;;;;;;5.60;2.63;;;9.70;99.10;;;;;;5002496;28;20041;-69
2023/08/29 03:28:33;;;;;;;5.55;2.53;;;9.70;99.10;;;;;;5023696;28;20473;-69
2023/08/29 03:31:07;;;;;;;3.75;2.75;;;9.70;99.10;;;;;;5023750;28;20084;-69
2023/08/29 03:33:33;;;;;;;4.82;2.63;;;9.80;99.20;;;;;;5028910;28;20524;-69
2023/08/29 03:35:59;;;;;;;3.13;1.90;;;9.80;99.30;;;;;;5029870;28;20037;-69
2023/08/29 03:38:25;;;;;;;4.20;2.10;;;9.80;99.30;;;;;;5029812;28;20680;-69
2023/08/29 03:40:57;;;;;;;2.93;2.10;;;9.90;99.30;;;;;;5025058;28;20041;-69
2023/08/29 03:43:27;;;;;;;4.82;2.50;;;9.80;99.10;;;;;;5025368;28;20047;-69
2023/08/29 03:46:07;;;;;;;4.65;2.10;;;9.90;99.30;;;;;;5021647;28;20040;-69
2023/08/29 03:48:34;;;;;;;2.80;2.13;;;9.90;99.30;;;;;;5007266;28;20049;-69
2023/08/29 03:51:06;;;;;;;3.00;1.93;;;9.90;99.30;;;;;;5029844;28;20730;-69
2023/08/29 03:53:36;;;;;;;4.65;2.08;;;10.00;99.50;;;;;;5023347;28;20309;-69
2023/08/29 03:56:03;;;;;;;2.70;1.80;;;10.00;99.50;;;;;;5028421;28;20035;-69
2023/08/29 03:58:32;;;;;;;2.60;1.80;;;10.00;99.50;;;;;;5021396;28;20275;-70
2023/08/29 04:00:58;;;;;;;3.13;1.53;;;10.10;99.50;;;;;;5012606;28;20287;-69
2023/08/29 04:03:24;;;;;;;3.55;2.00;;;10.20;99.70;;;;;;5029247;28;20807;-69
2023/08/29 04:05:50;;;;;;;3.90;1.80;;;10.20;99.70;;;;;;5012690;28;20124;-69
2023/08/29 04:08:16;;;;;;;2.90;1.63;;;10.30;99.70;;;;;;5028377;28;20033;-69
2023/08/29 04:10:42;;;;;;;2.50;1.85;;;10.40;99.80;;;;;;5028321;28;20102;-69
2023/08/29 04:13:08;;;;;;;3.83;1.80;;;10.50;99.80;;;;;;5023811;28;20033;-69
2023/08/29 04:15:34;;;;;;;2.40;1.43;;;10.60;99.90;;;;;;5011836;28;20531;-69
2023/08/29 04:18:01;;;;;;;2.90;1.65;;;10.60;99.90;;;;;;5004581;28;20049;-69
2023/08/29 04:20:28;;;;;;;3.90;2.00;;;10.70;99.90;;;;;;5027225;28;20034;-69
2023/08/29 04:22:55;;;;;;;2.03;1.60;;;10.80;99.90;;;;;;5027915;28;20318;-69
2023/08/29 04:25:21;;;;;;;1.77;1.30;;;10.80;99.90;;;;;;5024822;28;20831;-69
2023/08/29 04:27:48;;;;;;;2.30;1.60;;;10.80;99.80;;;;;;5028716;28;20318;-69
2023/08/29 04:30:14;;;;;;;2.03;1.60;;;10.80;99.70;;;;;;5026790;28;20317;-69
2023/08/29 04:32:40;;;;;;;2.63;1.80;;;10.70;99.70;;;;;;5001016;28;20283;-69
2023/08/29 04:35:06;;;;;;;2.50;1.50;;;10.70;99.70;;;;;;5027882;28;20287;-69
2023/08/29 04:37:33;;;;;;;2.20;1.50;;;10.70;99.70;;;;;;5006504;28;20035;-69
2023/08/29 04:39:59;;;;;;;2.57;1.83;;;10.60;99.70;;;;;;5026806;28;20280;-69
2023/08/29 04:42:25;;;;;;;2.60;1.63;;;10.60;99.70;;;;;;5023849;28;20298;-69
2023/08/29 04:44:53;;;;;;;2.37;1.40;;;10.60;99.70;;;;;;5025901;28;20283;-69
2023/08/29 04:47:19;;;;;;;2.10;1.23;;;10.60;99.70;;;;;;5024304;28;20091;-69
2023/08/29 04:49:46;;;;;;;3.40;2.00;;;10.50;99.60;;;;;;5021489;28;20366;-69
2023/08/29 04:52:11;;;;;;;3.87;1.90;;;10.40;99.60;;;;;;5020492;28;20354;-69
2023/08/29 04:54:37;;;;;;;2.77;1.60;;;10.40;99.90;;;;;;5026225;28;20382;-69
2023/08/29 04:57:04;;;;;;;2.30;1.53;;;10.40;99.90;;;;;;5019160;28;20037;-69
2023/08/29 04:59:30;;;;;;;2.67;1.70;;;10.40;99.90;;;;;;5025691;28;20036;-69
2023/08/29 05:01:56;;;;;;;5.33;2.17;;;10.40;99.90;;;;;;5027898;28;20287;-69
2023/08/29 05:04:21;;;;;;;4.23;2.23;;;10.50;99.90;;;;;;5019450;28;20291;-70
2023/08/29 05:06:47;;;;;;;2.40;1.77;;;10.60;99.90;;;;;;5009317;28;20040;-69
2023/08/29 05:09:13;;;;;;;2.47;1.70;;;10.70;99.90;;;;;;5027362;28;20041;-69
2023/08/29 05:11:38;;;;;;;2.50;1.97;;;10.70;99.90;;;;;;5028585;28;20368;-69
2023/08/29 05:14:04;;;;;;;3.37;2.30;;;10.70;99.90;;;;;;5022552;28;20511;-69
2023/08/29 05:16:32;;;;;;;4.63;2.57;;;10.80;99.90;;;;;;5025217;28;20481;-69
2023/08/29 05:18:58;;;;;;;3.17;2.00;;;10.90;99.90;;;;;;5020896;28;20175;-69
2023/08/29 05:21:25;;;;;;;3.47;2.10;;;10.90;99.90;;;;;;5022374;28;20290;-69
2023/08/29 05:23:50;;;;;;;3.27;2.33;;;11.00;99.90;;;;;;5019705;28;20280;-69
2023/08/29 05:26:16;;;;;;;4.43;2.70;;;11.10;99.90;;;;;;5025172;28;20290;-69
2023/08/29 05:28:42;;;;;;;4.37;2.87;;;11.20;99.90;;;;;;5021533;28;20040;-69
2023/08/29 05:31:08;;;;;;;4.13;2.40;;;11.30;99.90;;;;;;5028293;28;20045;-69
2023/08/29 05:33:33;;;;;;;3.17;2.30;;;11.40;99.90;;;;;;5026598;28;20476;-69
2023/08/29 05:35:59;;;;;;;2.90;2.20;;;11.50;99.90;;;;;;5026972;28;20033;-69
2023/08/29 05:38:27;;;;;;;4.43;2.30;;;11.70;99.90;;;;;;5008715;28;20049;-69
2023/08/29 05:40:53;;;;;;;3.07;1.77;;;11.80;99.90;;;;;;5021978;28;20038;-69
2023/08/29 05:43:19;;;;;;;4.80;2.00;;;12.00;99.90;;;;;;5005317;28;20290;-70
2023/08/29 05:45:45;;;;;;;2.70;2.00;;;12.10;99.90;;;;;;5028238;28;20290;-69
2023/08/29 05:48:11;;;;;;;3.40;2.13;;;12.20;99.90;;;;;;5027457;28;20699;-70
2023/08/29 05:50:41;;;;;;;3.50;2.50;;;12.40;99.90;;;;;;5028230;28;20124;-69
2023/08/29 05:53:06;;;;;;;4.77;2.27;;;12.60;99.90;;;;;;5024694;28;20068;-69
2023/08/29 05:55:33;;;;;;;3.73;2.23;;;12.70;99.90;;;;;;5019254;28;20796;-69
2023/08/29 05:57:59;;;;;;;2.33;1.90;;;12.90;99.90;;;;;;5021505;28;20076;-69
2023/08/29 06:00:25;;;;;;;3.00;1.93;;;13.10;99.90;;;;;;5026758;28;20283;-69
2023/08/29 06:02:54;;;;;;;2.50;2.00;;;13.30;99.90;;;;;;5026795;28;20275;-70
2023/08/29 06:05:20;;;;;;;2.60;2.13;;;13.50;99.90;;;;;;5029441;28;20295;-70
2023/08/29 06:07:48;;;;;;;4.87;2.43;;;13.60;99.90;;;;;;5030791;28;20369;-70
2023/08/29 06:10:14;;;;;;;2.80;2.27;;;13.80;99.90;;;;;;5027185;28;20033;-70
2023/08/29 06:12:40;;;;;;;3.77;2.27;;;14.00;99.90;;;;;;5028250;28;20736;-69
2023/08/29 06:15:06;;;;;;;2.80;1.87;;;14.10;99.90;;;;;;5028836;28;20555;-69
2023/08/29 06:17:32;;;;;;;3.40;3.00;;;14.20;99.90;;;;;;5022161;28;20520;-69
2023/08/29 06:19:57;;;;;;;2.90;1.97;;;14.40;99.90;;;;;;5029890;28;20268;-69
2023/08/29 06:22:24;;;;;;;3.37;2.20;;;14.50;99.80;;;;;;5029165;28;20038;-69
2023/08/29 06:24:50;;;;;;;3.73;3.43;;;14.60;99.70;;;;;;5030939;28;20448;-69
2023/08/29 06:27:15;;;;;;;5.90;5.40;;;14.70;99.40;;;;;;5025578;28;20295;-69
2023/08/29 06:29:41;;;;;;;3.87;3.57;;;14.70;99.20;;;;;;5026995;28;20507;-69
2023/08/29 06:32:07;;;;;;;5.60;4.97;;;14.80;98.90;;;;;;5013274;28;20041;-69
2023/08/29 06:34:33;;;;;;;4.77;4.37;;;14.80;98.70;;;;;;5009378;28;20056;-69
2023/08/29 06:36:58;;;;;;;5.47;5.00;;;14.80;98.60;;;;;;5028990;28;20045;-69
2023/08/29 06:39:24;;;;;;;2.60;2.40;;;14.80;98.70;;;;;;5025504;28;20040;-69
2023/08/29 06:41:50;;;;;;;4.23;3.83;;;14.90;98.80;;;;;;5028492;28;20497;-69
2023/08/29 06:44:15;;;;;;;5.53;5.13;;;15.00;98.90;;;;;;5031296;28;20520;-69
2023/08/29 06:46:41;;;;;;;8.47;7.97;;;15.10;98.90;;;;;;5029740;28;20055;-69
2023/08/29 06:49:07;;;;;;;3.80;3.50;;;15.10;98.60;;;;;;5027178;28;20052;-69
2023/08/29 06:51:34;;;;;;;5.23;3.60;;;15.20;98.40;;;;;;5010384;28;20808;-69
2023/08/29 06:53:59;;;;;;;4.40;4.10;;;15.30;98.40;;;;;;5031038;28;20351;-70
2023/08/29 06:56:25;;;;;;;3.17;2.87;;;15.40;98.30;;;;;;5026954;28;20320;-69
2023/08/29 06:58:51;;;;;;;4.37;2.83;;;15.50;98.40;;;;;;5029531;28;20459;-69
2023/08/29 07:01:17;;;;;;;3.43;3.13;;;15.70;98.40;;;;;;5027094;28;20075;-69
2023/08/29 07:03:42;;;;;;;4.10;3.47;;;15.80;98.20;;;;;;5013525;28;20501;-69
2023/08/29 07:06:08;;;;;;;4.93;3.40;;;16.00;98.00;;;;;;5029709;28;20053;-70
2023/08/29 07:08:34;;;;;;;3.67;3.37;;;16.10;97.50;;;;;;5029409;28;20129;-69
2023/08/29 07:10:59;;;;;;;4.07;3.70;;;16.20;97.40;;;;;;5028407;28;20690;-70
2023/08/29 07:13:25;;;;;;;5.10;3.40;;;16.40;97.10;;;;;;5027111;28;20042;-69
2023/08/29 07:15:51;;;;;;;3.03;1.83;;;16.60;96.70;;;;;;5021539;28;20033;-69
2023/08/29 07:18:16;;;;;;;4.17;3.80;;;16.70;96.40;;;;;;5030147;28;20200;-69
2023/08/29 07:20:42;;;;;;;3.47;3.17;;;16.80;96.20;;;;;;5030752;28;20056;-69
2023/08/29 07:23:08;;;;;;;3.77;2.93;;;17.00;95.50;;;;;;5025206;28;20175;-69
2023/08/29 07:25:38;;;;;;;3.90;2.93;;;17.00;94.80;;;;;;5022625;28;20397;-69
2023/08/29 07:28:08;;;;;;;5.27;2.57;;;17.10;94.20;;;;;;5024664;28;20478;-69
2023/08/29 07:30:34;;;;;;;4.20;3.83;;;17.20;94.00;;;;;;5027887;28;20344;-69
2023/08/29 07:32:59;;;;;;;6.43;3.10;;;17.20;91.50;;;;;;5025832;28;20826;-69
2023/08/29 07:35:25;;;;;;;3.00;2.80;;;17.20;91.20;;;;;;5024595;28;20131;-69
2023/08/29 07:37:52;;;;;;;6.13;3.40;;;17.30;92.10;;;;;;5028257;28;20120;-69
2023/08/29 07:40:17;;;;;;;4.00;3.70;;;17.30;91.70;;;;;;5023842;28;20038;-70
2023/08/29 07:42:44;;;;;;;3.60;3.30;;;17.30;90.30;;;;;;5028381;28;20283;-69
2023/08/29 07:45:10;;;;;;;4.20;3.67;;;17.20;88.70;;;;;;5010676;28;20048;-69
2023/08/29 07:47:35;;;;;;;4.93;4.50;;;17.20;89.20;;;;;;5026492;28;20449;-70
2023/08/29 07:50:02;;;;;;;9.80;9.00;;;17.30;89.80;;;;;;5027174;28;20485;-70
2023/08/29 07:52:28;;;;;;;5.57;5.17;;;17.30;88.50;;;;;;5029911;28;20044;-69
2023/08/29 07:54:53;;;;;;;5.87;5.43;;;17.30;89.10;;;;;;5024219;28;20308;-70
2023/08/29 07:57:19;;;;;;;5.83;5.40;;;17.40;89.50;;;;;;5028925;28;20048;-69
2023/08/29 07:59:45;;;;;;;7.60;7.07;;;17.50;89.90;;;;;;5026371;28;20037;-69
2023/08/29 08:02:10;;;;;;;11.03;10.33;;;17.50;89.10;;;;;;5028814;28;20037;-69
2023/08/29 08:04:36;;;;;;;10.93;10.03;;;17.60;88.70;;;;;;5008310;28;20082;-69
2023/08/29 08:07:03;;;;;;;9.57;8.87;;;17.70;88.20;;;;;;5029798;28;20846;-69
2023/08/29 08:09:28;;;;;;;7.77;7.17;;;17.70;87.90;;;;;;5027171;28;21179;-70
2023/08/29 08:11:54;;;;;;;8.10;7.67;;;17.80;88.30;;;;;;5027328;28;20132;-70
2023/08/29 08:14:20;;;;;;;17.80;16.37;;;17.90;87.60;;;;;;5019987;28;20057;-70
2023/08/29 08:16:45;;;;;;;169.07;129.33;;;18.00;88.50;;;;;;5026048;28;20033;-70
2023/08/29 08:19:11;;;;;;;102.47;92.90;;;18.10;88.00;;;;;;5021122;28;20042;-70
2023/08/29 08:21:37;;;;;;;235.80;182.23;;;18.30;87.80;;;;;;5020221;28;20123;-70
2023/08/29 08:24:03;;;;;;;132.43;108.83;;;18.50;87.80;;;;;;5028956;28;20037;-70
2023/08/29 08:26:28;;;;;;;212.83;192.60;;;18.70;87.50;;;;;;5031466;28;20139;-70
2023/08/29 08:28:54;;;;;;;189.93;147.73;;;18.90;85.70;;;;;;5024752;28;20573;-70
2023/08/29 08:31:20;;;;;;;191.83;174.13;;;19.00;84.40;;;;;;5025496;28;20049;-70
2023/08/29 08:33:46;;;;;;;237.23;183.70;;;19.20;85.30;;;;;;5029062;28;20040;-70
2023/08/29 08:36:12;;;;;;;174.67;147.90;;;19.30;83.10;;;;;;5028849;28;20044;-70
2023/08/29 08:38:38;;;;;;;172.97;154.33;;;19.50;82.00;;;;;;5024850;28;20033;-69
2023/08/29 08:41:04;;;;;;;192.10;171.60;;;19.70;82.30;;;;;;5011860;28;20124;-70
2023/08/29 08:43:31;;;;;;;279.20;211.23;;;19.70;78.70;;;;;;5028437;28;20736;-70
2023/08/29 08:45:58;;;;;;;159.57;142.37;;;19.80;79.20;;;;;;5025533;28;20060;-70
2023/08/29 08:48:25;;;;;;;288.23;221.23;;;19.80;77.70;;;;;;5007243;28;20053;-70
2023/08/29 08:50:51;;;;;;;183.83;152.30;;;19.90;77.90;;;;;;5028961;28;20468;-70
2023/08/29 08:53:20;;;;;;;156.87;142.33;;;20.00;77.40;;;;;;5007859;28;20052;-70
2023/08/29 08:55:47;;;;;;;134.03;111.17;;;20.10;77.60;;;;;;5027609;28;20041;-70
2023/08/29 08:58:13;;;;;;;102.80;92.43;;;20.20;77.60;;;;;;5027941;28;20033;-70
2023/08/29 09:00:39;;;;;;;187.67;143.97;;;20.40;77.40;;;;;;5026115;28;20037;-70
2023/08/29 09:03:05;;;;;;;109.83;100.43;;;20.50;77.70;;;;;;5020631;28;20052;-70
2023/08/29 09:05:31;;;;;;;152.10;138.60;;;20.50;73.40;;;;;;5028371;28;20127;-70
2023/08/29 09:07:56;;;;;;;79.23;74.07;;;20.40;74.00;;;;;;5004530;28;20214;-70
2023/08/29 09:10:23;;;;;;;160.97;146.37;;;20.40;74.60;;;;;;5032984;28;20623;-70
2023/08/29 09:12:50;;;;;;;154.97;141.07;;;20.40;74.00;;;;;;5030296;28;20055;-70
2023/08/29 09:15:18;;;;;;;159.07;147.00;;;20.40;74.90;;;;;;5026868;28;20118;-70
2023/08/29 09:17:52;;;;;;;107.93;100.30;;;20.40;73.80;;;;;;5038305;28;20469;-70
2023/08/29 09:20:28;;;;;;;188.67;173.70;;;20.50;73.40;;;;;;5007245;28;20107;-70
2023/08/29 09:22:54;;;;;;;149.60;138.20;;;20.40;72.80;;;;;;5024890;28;21124;-70
2023/08/29 09:25:19;;;;;;;169.53;154.43;;;20.30;72.70;;;;;;5022914;28;20150;-70
2023/08/29 09:27:49;;;;;;;235.03;214.80;;;20.20;73.00;;;;;;5033867;28;20048;-70
2023/08/29 09:30:16;;;;;;;222.43;203.03;;;20.40;74.20;;;;;;5026086;28;20033;-70
2023/08/29 09:32:53;;;;;;;155.23;142.40;;;20.30;72.60;;;;;;5029867;28;20086;-70
2023/08/29 09:35:22;;;;;;;238.93;219.27;;;20.30;72.70;;;;;;5026973;28;20040;-70
2023/08/29 09:37:54;;;;;;;154.00;139.37;;;20.20;72.40;;;;;;5021200;28;20124;-70
2023/08/29 09:40:21;;;;;;;116.83;105.77;;;20.30;73.60;;;;;;5012612;28;20135;-70
2023/08/29 09:43:01;;;;;;;148.97;136.00;;;20.40;73.60;;;;;;5032304;28;20110;-70
2023/08/29 09:45:34;;;;;;;79.87;75.47;;;20.50;72.20;;;;;;5031503;28;20037;-69
2023/08/29 09:48:06;;;;;;;107.67;102.70;;;20.60;72.00;;;;;;5016338;28;20056;-70
2023/08/29 09:50:33;;;;;;;93.77;89.47;;;20.50;69.80;;;;;;5029838;28;20043;-70
2023/08/29 09:53:00;;;;;;;97.27;92.63;;;20.50;70.50;;;;;;5030318;28;20458;-70
2023/08/29 09:55:30;;;;;;;101.90;97.10;;;20.50;70.60;;;;;;5029191;28;20489;-70
2023/08/29 09:57:57;;;;;;;106.03;100.20;;;20.50;70.00;;;;;;5024132;28;20066;-70
2023/08/29 10:00:24;;;;;;;104.93;100.17;;;20.50;70.30;;;;;;5030848;28;20037;-70
2023/08/29 10:02:54;;;;;;;136.60;124.50;;;20.60;71.30;;;;;;5013072;28;20049;-70
2023/08/29 10:05:24;;;;;;;200.30;183.50;;;20.80;71.50;;;;;;5009211;28;20849;-70
2023/08/29 10:07:53;;;;;;;168.30;151.60;;;21.00;71.00;;;;;;5027768;28;20037;-69
2023/08/29 10:10:20;;;;;;;135.43;122.97;;;21.10;69.50;;;;;;5013865;28;20045;-70
2023/08/29 10:12:46;;;;;;;227.90;205.93;;;21.20;69.00;;;;;;5027708;28;20045;-70
2023/08/29 10:15:12;;;;;;;77.87;71.17;;;21.30;68.40;;;;;;5011661;28;20036;-70
2023/08/29 10:17:41;;;;;;;118.47;104.13;;;21.40;68.40;;;;;;5028489;28;20424;-69
2023/08/29 10:20:09;;;;;;;80.60;73.27;;;21.40;68.40;;;;;;5005782;28;20048;-70
2023/08/29 10:22:37;;;;;;;193.93;178.00;;;21.60;69.00;;;;;;5006012;28;20041;-70
2023/08/29 10:25:04;;;;;;;356.40;319.83;;;21.70;67.80;;;;;;5008991;28;20076;-70
2023/08/29 10:27:31;;;;;;;277.27;247.83;;;21.70;66.50;;;;;;5024539;28;20036;-70
2023/08/29 10:29:57;;;;;;;300.13;270.03;;;21.50;65.60;;;;;;5026958;28;20040;-70
2023/08/29 10:32:25;;;;;;;270.23;243.10;;;21.40;65.00;;;;;;5028353;28;20091;-70
2023/08/29 10:34:51;;;;;;;265.70;241.67;;;21.40;66.50;;;;;;5028096;28;20029;-70
2023/08/29 10:37:18;;;;;;;207.53;186.53;;;21.50;65.10;;;;;;5027605;28;20094;-70
2023/08/29 10:39:44;;;;;;;231.33;153.77;;;21.50;65.30;;;;;;5029422;28;20116;-70
2023/08/29 10:42:13;;;;;;;96.87;85.97;;;21.50;65.20;;;;;;5011364;28;20037;-70
2023/08/29 10:44:41;;;;;;;179.57;161.93;;;21.50;66.40;;;;;;5008549;28;20535;-70
2023/08/29 10:47:27;;;;;;;182.23;163.20;;;21.30;64.40;;;;;;5029880;28;20133;-70
2023/08/29 10:50:05;;;;;;;164.17;145.83;;;21.30;65.50;;;;;;5022394;28;20057;-70
2023/08/29 10:52:40;;;;;;;124.23;112.03;;;21.30;60.00;;;;;;5021589;28;20048;-70
2023/08/29 10:55:22;;;;;;;110.40;100.72;;;21.20;62.80;;;;;;5007183;28;20041;-70
2023/08/29 10:57:49;;;;;;;123.80;111.77;;;21.40;62.20;;;;;;5029129;28;20045;-70
2023/08/29 11:00:35;;;;;;;167.40;132.00;;;21.60;63.30;;;;;;5027621;28;20108;-70
2023/08/29 11:03:02;;;;;;;136.30;121.73;;;21.80;61.00;;;;;;5022585;28;20037;-70
2023/08/29 11:05:28;;;;;;;271.93;195.83;;;21.80;58.40;;;;;;5025513;28;20041;-70
2023/08/29 11:08:21;;;;;;;152.90;137.57;;;21.80;61.10;;;;;;5025126;28;20049;-70
2023/08/29 11:11:20;;;;;;;155.03;134.97;;;21.80;61.00;;;;;;5020991;28;20065;-70
2023/08/29 11:13:57;;;;;;;294.73;204.07;;;21.70;59.80;;;;;;5021208;28;20058;-70
2023/08/29 11:16:23;;;;;;;216.13;162.00;;;21.80;60.70;;;;;;5010120;28;20044;-70
2023/08/29 11:19:16;;;;;;;93.47;84.60;;;22.00;61.70;;;;;;5030211;28;20083;-70
2023/08/29 11:21:45;;;;;;;192.17;139.33;;;22.10;60.40;;;;;;5023261;28;20044;-70
2023/08/29 11:24:11;;;;;;;99.57;89.90;;;22.20;61.60;;;;;;5030388;28;20045;-70
2023/08/29 11:26:43;;;;;;;166.93;143.57;;;22.30;60.80;;;;;;5036436;28;20127;-70
2023/08/29 11:29:09;;;;;;;152.70;128.30;;;22.40;60.60;;;;;;5006464;28;20744;-70
2023/08/29 11:31:45;;;;;;;99.17;88.53;;;22.30;59.20;;;;;;5033441;28;20041;-70
2023/08/29 11:34:17;;;;;;;127.13;100.93;;;22.10;58.90;;;;;;5030753;28;20045;-70
2023/08/29 11:36:47;;;;;;;229.97;165.57;;;22.00;60.40;;;;;;5024560;28;20045;-70
2023/08/29 11:39:16;;;;;;;172.47;125.33;;;22.10;61.60;;;;;;5024533;28;20034;-71
2023/08/29 11:41:43;;;;;;;199.40;162.10;;;22.40;61.80;;;;;;5028780;28;20041;-70
2023/08/29 11:44:10;;;;;;;134.13;119.73;;;22.70;60.60;;;;;;5028317;28;20045;-69
2023/08/29 11:46:36;;;;;;;268.47;233.47;;;23.00;60.00;;;;;;5024827;28;20467;-70
2023/08/29 11:49:13;;;;;;;198.33;158.50;;;23.30;59.60;;;;;;5003695;28;20055;-70
2023/08/29 11:51:40;;;;;;;305.87;216.37;;;23.60;57.10;;;;;;5024266;28;20079;-70
2023/08/29 11:54:41;;;;;;;247.43;188.00;;;23.70;58.50;;;;;;5024031;28;20044;-70
2023/08/29 11:57:10;;;;;;;315.13;224.43;;;23.90;55.40;;;;;;5029025;28;20037;-70
2023/08/29 11:59:50;;;;;;;187.57;132.83;;;23.90;57.40;;;;;;5028170;28;20041;-70
2023/08/29 12:02:17;;;;;;;218.60;170.77;;;23.80;56.10;;;;;;5022142;28;20045;-69
2023/08/29 12:04:52;;;;;;;179.50;144.83;;;23.40;54.90;;;;;;5026657;28;20413;-69
2023/08/29 12:07:18;;;;;;;266.40;227.83;;;23.30;55.90;;;;;;5022552;28;20436;-69
2023/08/29 12:09:48;;;;;;;305.83;273.23;;;23.30;55.90;;;;;;5018782;28;20132;-69
2023/08/29 12:12:40;;;;;;;382.43;307.17;;;23.40;55.60;;;;;;5021884;28;20409;-70
2023/08/29 12:15:14;;;;;;;115.43;103.90;;;23.50;55.80;;;;;;5024096;28;20120;-70
2023/08/29 12:17:47;;;;;;;107.28;95.95;;;23.70;55.50;;;;;;5006073;28;20049;-69
2023/08/29 12:20:13;;;;;;;100.80;90.00;;;23.80;55.70;;;;;;5028678;28;20040;-70
2023/08/29 12:22:42;;;;;;;205.27;160.43;;;23.90;55.50;;;;;;5033474;28;20068;-69
2023/08/29 12:25:09;;;;;;;148.03;132.17;;;23.90;55.90;;;;;;5023953;28;20050;-70
2023/08/29 12:27:35;;;;;;;376.53;283.10;;;23.70;54.50;;;;;;5028251;28;20424;-69
2023/08/29 12:30:01;;;;;;;217.10;176.03;;;23.70;55.30;;;;;;5004312;28;20059;-69
2023/08/29 12:32:28;;;;;;;261.83;179.43;;;23.50;55.60;;;;;;5020022;28;20045;-69
2023/08/29 12:34:57;;;;;;;214.73;175.90;;;23.40;54.80;;;;;;5012032;28;20048;-69